Time;durP1;ratioP1;P1;durP2;ratioP2;P2;SDS_P1;SDS_P2;PMS_P1;PMS_P2;Temp;Humidity;BMP_temperature;BMP_pressure;BME280_temperature;BME280_humidity;BME280_pressure;Samples;Min_cycle;Max_cycle;Signal;HPM_P1;HPM_P2
2023/05/31 00:00:12;;;;;;;;;;;;;;;21.58;42.81;102678.88;5052946;28;19917;-70
2023/05/31 00:02:38;;;;;;;;;;;;;;;21.57;42.93;102678.03;5038262;28;19996;-71
2023/05/31 00:05:03;;;;;;;;;;;;;;;21.56;42.68;102678.19;5049305;28;19917;-71
2023/05/31 00:07:28;;;;;;;;;;;;;;;21.55;42.67;102673.78;5037204;28;19920;-70
2023/05/31 00:09:53;;;;;;;;;;;;;;;21.54;42.95;102678.34;5019954;28;19921;-70
2023/05/31 00:12:18;;;;;;;;;;;;;;;21.53;43.05;102682.00;5040100;28;20270;-70
2023/05/31 00:14:44;;;;;;;;;;;;;;;21.53;42.87;102681.16;5049780;28;20353;-70
2023/05/31 00:17:09;;;;;;;;;;;;;;;21.53;42.72;102681.16;5052197;28;19947;-70
2023/05/31 00:19:34;;;;;;;;;;;;;;;21.51;42.96;102684.03;5050238;28;19917;-71
2023/05/31 00:21:59;;;;;;;;;;;;;;;21.50;42.71;102676.06;5043000;28;20286;-72
2023/05/31 00:24:25;;;;;;;;;;;;;;;21.50;42.81;102685.03;5050232;28;19967;-71
2023/05/31 00:26:50;;;;;;;;;;;;;;;21.49;42.99;102680.59;5042264;28;19924;-71
2023/05/31 00:29:15;;;;;;;;;;;;;;;21.49;42.53;102675.19;5051338;28;19924;-72
2023/05/31 00:31:41;;;;;;;;;;;;;;;21.48;42.72;102681.59;5043113;28;20408;-71
2023/05/31 00:34:06;;;;;;;;;;;;;;;21.48;42.96;102683.44;5050445;28;20382;-70
2023/05/31 00:36:32;;;;;;;;;;;;;;;21.47;42.75;102674.47;5049431;28;20290;-71
2023/05/31 00:38:57;;;;;;;;;;;;;;;21.46;42.97;102678.19;5029743;28;19920;-71
2023/05/31 00:41:23;;;;;;;;;;;;;;;21.46;42.88;102683.59;5048835;28;19940;-71
2023/05/31 00:43:48;;;;;;;;;;;;;;;21.45;43.06;102681.88;5053709;28;19913;-71
2023/05/31 00:46:17;;;;;;;;;;;;;;;21.43;43.00;102679.31;5047009;28;19913;-71
2023/05/31 00:48:42;;;;;;;;;;;;;;;21.43;42.82;102683.88;5056068;28;19920;-71
2023/05/31 00:51:08;;;;;;;;;;;;;;;21.42;42.74;102683.03;5033779;28;19913;-71
2023/05/31 00:53:33;;;;;;;;;;;;;;;21.41;42.82;102686.75;5051823;28;20374;-71
2023/05/31 00:55:58;;;;;;;;;;;;;;;21.41;42.52;102691.31;5053907;28;19917;-71
2023/05/31 00:58:23;;;;;;;;;;;;;;;21.39;42.89;102677.03;5047442;28;19916;-71
2023/05/31 01:00:49;;;;;;;;;;;;;;;21.39;42.80;102680.59;5054670;28;19943;-71
2023/05/31 01:03:15;;;;;;;;;;;;;;;21.39;42.64;102679.75;5050524;28;19924;-71
2023/05/31 01:05:41;;;;;;;;;;;;;;;21.37;42.64;102679.91;5039597;28;19980;-71
2023/05/31 01:08:06;;;;;;;;;;;;;;;21.37;42.76;102677.19;5052378;28;19913;-72
2023/05/31 01:10:31;;;;;;;;;;;;;;;21.35;42.86;102681.88;5036915;28;19943;-71
2023/05/31 01:13:17;;;;;;;;;;;;;;;21.36;42.76;102677.31;5045952;28;19913;-71
2023/05/31 01:15:44;;;;;;;;;;;;;;;21.35;42.77;102681.88;5049690;28;19917;-71
2023/05/31 01:18:12;;;;;;;;;;;;;;;21.33;42.82;102673.06;5037606;28;19921;-70
2023/05/31 01:20:38;;;;;;;;;;;;;;;21.32;42.73;102670.47;5037858;28;19919;-71
2023/05/31 01:23:04;;;;;;;;;;;;;;;21.31;42.83;102672.31;5029917;28;20026;-71
2023/05/31 01:25:48;;;;;;;;;;;;;;;21.31;42.71;102679.56;5034907;28;19963;-71
2023/05/31 01:28:14;;;;;;;;;;;;;;;21.30;42.73;102685.97;5056518;28;19917;-71
2023/05/31 01:30:39;;;;;;;;;;;;;;;21.29;42.64;102682.44;5050240;28;19917;-71
2023/05/31 01:33:06;;;;;;;;;;;;;;;21.27;42.95;102692.53;5052454;28;19913;-71
2023/05/31 01:35:31;;;;;;;;;;;;;;;21.27;42.87;102689.81;5034261;28;19913;-71
2023/05/31 01:37:57;;;;;;;;;;;;;;;21.27;43.03;102691.66;5039293;28;20336;-71
2023/05/31 01:40:22;;;;;;;;;;;;;;;21.27;43.03;102686.25;5052688;28;20017;-71
2023/05/31 01:42:47;;;;;;;;;;;;;;;21.26;42.76;102687.25;5038847;28;20371;-71
2023/05/31 01:45:12;;;;;;;;;;;;;;;21.24;42.96;102679.28;5037133;28;19936;-71
2023/05/31 01:47:40;;;;;;;;;;;;;;;21.23;42.70;102683.81;5053291;28;19912;-71
2023/05/31 01:50:05;;;;;;;;;;;;;;;21.23;42.74;102682.97;5042344;28;19985;-71
2023/05/31 01:52:30;;;;;;;;;;;;;;;21.22;42.87;102676.72;5031817;28;19920;-72
2023/05/31 01:54:56;;;;;;;;;;;;;;;21.21;42.87;102679.56;5053435;28;19917;-71
2023/05/31 01:57:21;;;;;;;;;;;;;;;21.20;42.79;102681.44;5036090;28;19928;-71
2023/05/31 01:59:46;;;;;;;;;;;;;;;21.20;42.74;102676.00;5045648;28;19923;-71
2023/05/31 02:02:11;;;;;;;;;;;;;;;21.19;42.75;102674.28;5046878;28;19913;-71
2023/05/31 02:04:36;;;;;;;;;;;;;;;21.18;42.98;102674.44;5054212;28;19909;-71
2023/05/31 02:07:02;;;;;;;;;;;;;;;21.18;42.68;102675.28;5032028;28;19917;-71
2023/05/31 02:09:27;;;;;;;;;;;;;;;21.17;42.74;102676.28;5043094;28;19921;-72
2023/05/31 02:11:52;;;;;;;;;;;;;;;21.16;42.93;102669.19;5055534;28;19913;-71
2023/05/31 02:14:17;;;;;;;;;;;;;;;21.16;42.77;102673.75;5031116;28;19920;-71
2023/05/31 02:16:43;;;;;;;;;;;;;;;21.15;42.88;102669.28;5057108;28;19921;-71
2023/05/31 02:19:08;;;;;;;;;;;;;;;21.15;43.02;102674.72;5044032;28;19921;-71
2023/05/31 02:21:35;;;;;;;;;;;;;;;21.13;42.89;102680.28;5052950;28;19913;-71
2023/05/31 02:24:00;;;;;;;;;;;;;;;21.12;42.76;102678.56;5035653;28;19997;-70
2023/05/31 02:26:26;;;;;;;;;;;;;;;21.12;42.64;102675.00;5022857;28;19917;-70
2023/05/31 02:28:51;;;;;;;;;;;;;;;21.11;42.73;102674.16;5055391;28;19956;-70
2023/05/31 02:31:16;;;;;;;;;;;;;;;21.10;42.83;102672.44;5049957;28;19971;-71
2023/05/31 02:33:42;;;;;;;;;;;;;;;21.10;42.88;102671.56;5051134;28;19917;-71
2023/05/31 02:36:07;;;;;;;;;;;;;;;21.09;42.80;102672.56;5050113;28;19935;-71
2023/05/31 02:38:32;;;;;;;;;;;;;;;21.08;43.00;102669.03;5045298;28;19948;-72
2023/05/31 02:40:58;;;;;;;;;;;;;;;21.06;42.88;102662.03;5031654;28;19963;-72
2023/05/31 02:43:23;;;;;;;;;;;;;;;21.06;42.93;102657.47;5043812;28;20398;-71
2023/05/31 02:45:48;;;;;;;;;;;;;;;21.06;43.03;102668.28;5054238;28;19913;-71
2023/05/31 02:48:13;;;;;;;;;;;;;;;21.05;42.71;102663.03;5050540;28;20283;-71
2023/05/31 02:50:38;;;;;;;;;;;;;;;21.04;42.81;102666.75;5041882;28;19940;-71
2023/05/31 02:53:04;;;;;;;;;;;;;;;21.03;42.90;102662.34;5050878;28;19920;-71
2023/05/31 02:55:29;;;;;;;;;;;;;;;21.03;42.84;102662.34;5050701;28;19920;-71
2023/05/31 02:57:55;;;;;;;;;;;;;;;21.02;42.69;102658.75;5051683;28;19917;-71
2023/05/31 03:00:20;;;;;;;;;;;;;;;21.02;42.91;102657.91;5045517;28;19913;-71
2023/05/31 03:02:46;;;;;;;;;;;;;;;21.01;42.88;102658.91;5033280;28;19913;-71
2023/05/31 03:05:11;;;;;;;;;;;;;;;20.97;42.86;102661.88;5051181;28;20460;-71
2023/05/31 03:07:36;;;;;;;;;;;;;;;20.98;42.68;102660.03;5033058;28;19924;-71
2023/05/31 03:10:04;;;;;;;;;;;;;;;20.97;42.85;102661.88;5046739;28;20444;-71
2023/05/31 03:12:29;;;;;;;;;;;;;;;20.95;42.74;102658.47;5045255;28;19920;-72
2023/05/31 03:14:54;;;;;;;;;;;;;;;20.96;42.80;102656.63;5051174;28;19917;-71
2023/05/31 03:17:20;;;;;;;;;;;;;;;20.95;42.61;102666.59;5054837;28;20283;-71
2023/05/31 03:19:45;;;;;;;;;;;;;;;20.94;42.99;102662.19;5048850;28;19921;-71
2023/05/31 03:22:10;;;;;;;;;;;;;;;20.93;42.74;102663.16;5051127;28;19913;-72
2023/05/31 03:24:35;;;;;;;;;;;;;;;20.93;42.75;102670.41;5051431;28;19924;-71
2023/05/31 03:27:01;;;;;;;;;;;;;;;20.92;42.61;102672.25;5049874;28;19921;-72
2023/05/31 03:29:26;;;;;;;;;;;;;;;20.92;42.58;102666.00;5049893;28;20431;-72
2023/05/31 03:31:51;;;;;;;;;;;;;;;20.91;42.93;102667.84;5034083;28;19994;-72
2023/05/31 03:34:16;;;;;;;;;;;;;;;20.90;42.71;102666.16;5032950;28;19920;-70
2023/05/31 03:36:41;;;;;;;;;;;;;;;20.89;42.63;102667.13;5043958;28;19921;-71
2023/05/31 03:39:07;;;;;;;;;;;;;;;20.88;42.91;102660.00;5056731;28;19963;-71
2023/05/31 03:41:32;;;;;;;;;;;;;;;20.88;42.89;102670.81;5049428;28;20004;-71
2023/05/31 03:43:57;;;;;;;;;;;;;;;20.88;42.83;102675.38;5056835;28;20081;-71
2023/05/31 03:46:22;;;;;;;;;;;;;;;20.87;42.65;102679.09;5051946;28;19917;-71
2023/05/31 03:48:47;;;;;;;;;;;;;;;20.85;42.72;102684.63;5030493;28;19913;-71
2023/05/31 03:51:13;;;;;;;;;;;;;;;20.85;42.87;102678.34;5035665;28;20348;-72
2023/05/31 03:53:38;;;;;;;;;;;;;;;20.85;42.77;102684.63;5032253;28;20317;-72
2023/05/31 03:56:03;;;;;;;;;;;;;;;20.85;42.88;102683.75;5020629;28;19917;-71
2023/05/31 03:58:28;;;;;;;;;;;;;;;20.84;42.69;102684.75;5050761;28;19913;-71
2023/05/31 04:00:54;;;;;;;;;;;;;;;20.83;42.65;102681.22;5052751;28;19913;-71
2023/05/31 04:03:20;;;;;;;;;;;;;;;20.83;42.97;102688.47;5049571;28;19917;-71
2023/05/31 04:05:45;;;;;;;;;;;;;;;20.82;42.55;102682.22;5037109;28;19970;-72
2023/05/31 04:08:11;;;;;;;;;;;;;;;20.82;42.91;102681.34;5040664;28;19939;-71
2023/05/31 04:10:36;;;;;;;;;;;;;;;20.81;42.58;102682.31;5057122;28;19924;-71
2023/05/31 04:13:01;;;;;;;;;;;;;;;20.80;42.85;102684.19;5054066;28;19924;-71
2023/05/31 04:15:26;;;;;;;;;;;;;;;20.80;42.69;102684.19;5049615;28;19952;-71
2023/05/31 04:17:52;;;;;;;;;;;;;;;20.80;42.88;102680.63;5019806;28;19948;-71
2023/05/31 04:20:18;;;;;;;;;;;;;;;20.80;42.86;102683.31;5032301;28;19913;-71
2023/05/31 04:22:43;;;;;;;;;;;;;;;20.78;42.68;102683.47;5034722;28;19948;-72
2023/05/31 04:25:12;;;;;;;;;;;;;;;20.78;42.71;102686.19;5039259;28;19913;-71
2023/05/31 04:27:40;;;;;;;;;;;;;;;20.79;42.57;102692.44;5053007;28;21304;-72
2023/05/31 04:30:06;;;;;;;;;;;;;;;20.78;42.96;102696.16;5049415;28;19921;-71
2023/05/31 04:32:33;;;;;;;;;;;;;;;20.78;42.91;102696.16;5056373;28;19941;-71
2023/05/31 04:34:58;;;;;;;;;;;;;;;20.76;42.83;102688.16;5037089;28;20404;-72
2023/05/31 04:37:30;;;;;;;;;;;;;;;20.76;42.71;102685.44;5056993;28;19913;-72
2023/05/31 04:39:56;;;;;;;;;;;;;;;20.76;42.63;102682.75;5059474;28;19913;-71
2023/05/31 04:42:24;;;;;;;;;;;;;;;20.75;42.79;102682.91;5055615;28;20378;-71
2023/05/31 04:44:49;;;;;;;;;;;;;;;20.76;42.91;102692.72;5054384;28;19913;-71
2023/05/31 04:47:15;;;;;;;;;;;;;;;20.74;42.73;102692.84;5034987;28;19920;-71
2023/05/31 04:49:41;;;;;;;;;;;;;;;20.74;42.84;102682.03;5041634;28;19923;-71
2023/05/31 04:52:06;;;;;;;;;;;;;;;20.73;42.87;102688.44;5037485;28;19919;-72
2023/05/31 04:54:32;;;;;;;;;;;;;;;20.74;42.66;102692.00;5057455;28;19921;-71
2023/05/31 04:56:58;;;;;;;;;;;;;;;20.73;42.54;102688.44;5033616;28;19960;-71
2023/05/31 04:59:24;;;;;;;;;;;;;;;20.72;42.84;102684.88;5039278;28;19984;-71
2023/05/31 05:01:49;;;;;;;;;;;;;;;20.73;42.78;102674.94;5055557;28;19920;-71
2023/05/31 05:04:14;;;;;;;;;;;;;;;20.72;42.86;102684.00;5035102;28;20051;-71
2023/05/31 05:06:41;;;;;;;;;;;;;;;20.71;42.85;102682.31;5041982;28;19936;-72
2023/05/31 05:09:06;;;;;;;;;;;;;;;20.72;42.84;102681.31;5050866;28;19971;-71
2023/05/31 05:11:32;;;;;;;;;;;;;;;20.71;42.93;102679.59;5048839;28;19925;-71
2023/05/31 05:13:57;;;;;;;;;;;;;;;20.71;42.92;102677.75;5054217;28;19936;-72
2023/05/31 05:16:22;;;;;;;;;;;;;;;20.70;42.56;102686.00;5052429;28;19924;-71
2023/05/31 05:18:48;;;;;;;;;;;;;;;20.70;42.58;102686.88;5053398;28;19944;-71
2023/05/31 05:21:13;;;;;;;;;;;;;;;20.70;42.57;102686.00;5039975;28;19917;-72
2023/05/31 05:23:39;;;;;;;;;;;;;;;20.70;42.79;102686.00;5050586;28;19917;-71
2023/05/31 05:26:05;;;;;;;;;;;;;;;20.70;42.87;102691.41;5053127;28;19921;-71
2023/05/31 05:28:30;;;;;;;;;;;;;;;20.70;42.91;102688.72;5056383;28;19913;-70
2023/05/31 05:30:55;;;;;;;;;;;;;;;20.69;42.63;102687.88;5052419;28;19917;-71
2023/05/31 05:33:20;;;;;;;;;;;;;;;20.69;42.86;102690.56;5041251;28;19913;-71
2023/05/31 05:35:46;;;;;;;;;;;;;;;20.69;42.87;102692.41;5053692;28;19920;-71
2023/05/31 05:38:11;;;;;;;;;;;;;;;20.68;42.56;102690.69;5052586;28;19935;-71
2023/05/31 05:40:36;;;;;;;;;;;;;;;20.68;42.66;102687.97;5056830;28;20282;-70
2023/05/31 05:43:01;;;;;;;;;;;;;;;20.68;42.93;102690.69;5050492;28;19917;-71
2023/05/31 05:45:27;;;;;;;;;;;;;;;20.68;42.73;102688.84;5055098;28;19913;-71
2023/05/31 05:47:55;;;;;;;;;;;;;;;20.68;42.67;102679.88;5051535;28;19917;-71
2023/05/31 05:50:21;;;;;;;;;;;;;;;20.67;42.61;102681.72;5054630;28;20067;-71
2023/05/31 05:52:46;;;;;;;;;;;;;;;20.66;42.87;102674.63;5056250;28;20317;-71
2023/05/31 05:55:11;;;;;;;;;;;;;;;20.67;42.87;102679.03;5055921;28;19917;-71
2023/05/31 05:57:37;;;;;;;;;;;;;;;20.68;42.85;102680.72;5050059;28;19913;-71
2023/05/31 06:00:09;;;;;;;;;;;;;;;20.67;42.64;102672.75;5040092;28;20420;-70
2023/05/31 06:02:34;;;;;;;;;;;;;;;20.68;42.77;102687.97;5059935;28;19913;-71
2023/05/31 06:05:00;;;;;;;;;;;;;;;20.67;42.63;102687.13;5043352;28;19917;-71
2023/05/31 06:07:25;;;;;;;;;;;;;;;20.66;42.58;102690.84;5057856;28;20011;-71
2023/05/31 06:09:50;;;;;;;;;;;;;;;20.66;42.77;102676.47;5052203;28;19917;-71
2023/05/31 06:12:15;;;;;;;;;;;;;;;20.67;42.68;102680.88;5053450;28;19913;-71
2023/05/31 06:14:41;;;;;;;;;;;;;;;20.67;42.62;102681.72;5051149;28;19913;-72
2023/05/31 06:17:06;;;;;;;;;;;;;;;20.68;42.61;102685.28;5051986;28;19921;-70
2023/05/31 06:19:31;;;;;;;;;;;;;;;20.68;42.80;102678.03;5022139;28;19917;-71
2023/05/31 06:21:57;;;;;;;;;;;;;;;20.66;42.88;102677.31;5056759;28;19936;-71
2023/05/31 06:24:22;;;;;;;;;;;;;;;20.68;42.67;102674.47;5050188;28;19928;-71
2023/05/31 06:26:48;;;;;;;;;;;;;;;20.67;42.63;102673.63;5053939;28;19921;-71
2023/05/31 06:29:13;;;;;;;;;;;;;;;20.67;42.64;102673.63;5055956;28;19917;-71
2023/05/31 06:31:39;;;;;;;;;;;;;;;20.68;42.60;102671.75;5051695;28;19913;-71
2023/05/31 06:34:04;;;;;;;;;;;;;;;20.68;42.71;102677.16;5060162;28;19921;-71
2023/05/31 06:36:29;;;;;;;;;;;;;;;20.67;42.92;102673.63;5042694;28;19970;-71
2023/05/31 06:38:55;;;;;;;;;;;;;;;20.68;42.86;102675.31;5051613;28;19920;-70
2023/05/31 06:41:20;;;;;;;;;;;;;;;20.67;42.76;102679.03;5053750;28;19913;-70
2023/05/31 06:43:45;;;;;;;;;;;;;;;20.69;42.89;102673.50;5050900;28;19927;-71
2023/05/31 06:46:12;;;;;;;;;;;;;;;20.69;42.95;102678.91;5038258;28;19935;-71
2023/05/31 06:48:37;;;;;;;;;;;;;;;20.68;42.54;102683.44;5034210;28;19920;-71
2023/05/31 06:51:02;;;;;;;;;;;;;;;20.69;42.92;102678.91;5052206;28;19917;-71
2023/05/31 06:53:28;;;;;;;;;;;;;;;20.69;42.87;102681.59;5049237;28;19971;-71
2023/05/31 06:55:53;;;;;;;;;;;;;;;20.69;42.80;102687.88;5056428;28;19923;-70
2023/05/31 06:58:18;;;;;;;;;;;;;;;20.69;42.92;102687.88;5048981;28;19917;-70
2023/05/31 07:00:43;;;;;;;;;;;;;;;20.69;42.68;102685.16;5058485;28;19939;-71
2023/05/31 07:03:08;;;;;;;;;;;;;;;20.71;42.91;102682.31;5051681;28;19920;-71
2023/05/31 07:05:34;;;;;;;;;;;;;;;20.71;42.59;102682.31;5049817;28;19947;-71
2023/05/31 07:08:00;;;;;;;;;;;;;;;20.71;42.90;102685.88;5038697;28;19917;-71
2023/05/31 07:10:27;;;;;;;;;;;;;;;20.71;42.62;102680.47;5050354;28;19923;-71
2023/05/31 07:12:52;;;;;;;;;;;;;;;20.71;42.66;102679.59;5050279;28;19916;-71
2023/05/31 07:15:17;;;;;;;;;;;;;;;20.71;42.80;102679.59;5030836;28;20018;-71
2023/05/31 07:17:42;;;;;;;;;;;;;;;20.72;42.62;102682.16;5052611;28;20388;-71
2023/05/31 07:20:08;;;;;;;;;;;;;;;20.72;42.84;102679.47;5050764;28;20004;-71
2023/05/31 07:22:34;;;;;;;;;;;;;;;20.74;42.91;102678.50;5055229;28;19919;-71
2023/05/31 07:24:59;;;;;;;;;;;;;;;20.73;42.67;102674.94;5043962;28;20019;-72
2023/05/31 07:27:24;;;;;;;;;;;;;;;20.74;42.85;102678.50;5030240;28;19964;-71
2023/05/31 07:29:49;;;;;;;;;;;;;;;20.75;42.84;102683.75;5037555;28;19917;-71
2023/05/31 07:32:15;;;;;;;;;;;;;;;20.75;42.71;102677.50;5050489;28;19916;-71
2023/05/31 07:34:40;;;;;;;;;;;;;;;20.75;42.69;102675.63;5053341;28;19953;-71
2023/05/31 07:37:06;;;;;;;;;;;;;;;20.76;42.65;102674.63;5048823;28;20017;-70
2023/05/31 07:39:31;;;;;;;;;;;;;;;20.76;42.90;102679.19;5049224;28;19917;-71
2023/05/31 07:41:58;;;;;;;;;;;;;;;20.77;42.95;102678.19;5051392;28;19936;-70
2023/05/31 07:44:25;;;;;;;;;;;;;;;20.76;42.92;102671.94;5050774;28;19921;-71
2023/05/31 07:46:50;;;;;;;;;;;;;;;20.77;42.92;102672.78;5049911;28;19924;-71
2023/05/31 07:49:15;;;;;;;;;;;;;;;20.77;43.04;102676.34;5033290;28;19921;-71
2023/05/31 07:51:40;;;;;;;;;;;;;;;20.78;42.68;102671.81;5036623;28;19921;-71
2023/05/31 07:54:05;;;;;;;;;;;;;;;20.79;42.97;102671.66;5049642;28;19913;-71
2023/05/31 07:56:31;;;;;;;;;;;;;;;20.79;43.06;102665.41;5056756;28;19984;-70
2023/05/31 07:58:56;;;;;;;;;;;;;;;20.80;42.95;102664.41;5049092;28;19917;-71
2023/05/31 08:01:21;;;;;;;;;;;;;;;20.80;43.06;102665.25;5056785;28;19912;-70
2023/05/31 08:03:46;;;;;;;;;;;;;;;20.80;42.80;102665.25;5050814;28;19913;-69
2023/05/31 08:06:11;;;;;;;;;;;;;;;20.81;42.94;102666.09;5050587;28;19917;-72
2023/05/31 08:08:37;;;;;;;;;;;;;;;20.81;43.17;102661.56;5056247;28;19944;-72
2023/05/31 08:11:02;;;;;;;;;;;;;;;20.81;42.99;102661.56;5053995;28;19921;-71
2023/05/31 08:13:28;;;;;;;;;;;;;;;20.82;43.11;102665.13;5035234;28;20046;-71
2023/05/31 08:15:53;;;;;;;;;;;;;;;20.81;43.05;102672.38;5039006;28;19989;-71
2023/05/31 08:18:19;;;;;;;;;;;;;;;20.82;43.45;102673.25;5056389;28;19924;-71
2023/05/31 08:20:44;;;;;;;;;;;;;;;20.82;43.26;102663.28;5034164;28;19921;-70
2023/05/31 08:23:16;;;;;;;;;;;;;;;20.82;43.48;102662.44;5059805;28;19956;-71
2023/05/31 08:25:41;;;;;;;;;;;;;;;20.82;43.11;102657.88;5044456;28;19967;-71
2023/05/31 08:28:07;;;;;;;;;;;;;;;20.82;43.16;102654.31;5048349;28;19932;-71
2023/05/31 08:30:32;;;;;;;;;;;;;;;20.82;43.32;102651.63;5056859;28;19921;-71
2023/05/31 08:32:57;;;;;;;;;;;;;;;20.81;43.17;102653.44;5052491;28;19913;-71
2023/05/31 08:35:22;;;;;;;;;;;;;;;20.81;43.19;102645.34;5040423;28;19943;-70
2023/05/31 08:37:48;;;;;;;;;;;;;;;20.80;43.25;102649.03;5053345;28;19913;-71
2023/05/31 08:40:13;;;;;;;;;;;;;;;20.81;43.21;102639.94;5033758;28;19913;-71
2023/05/31 08:42:43;;;;;;;;;;;;;;;20.81;43.20;102639.06;5053575;28;19920;-70
2023/05/31 08:45:09;;;;;;;;;;;;;;;20.80;43.23;102635.53;5048495;28;19969;-71
2023/05/31 08:47:43;;;;;;;;;;;;;;;20.80;43.37;102630.13;5034420;28;19913;-71
2023/05/31 08:50:12;;;;;;;;;;;;;;;20.80;43.56;102635.53;5038836;28;19920;-71
2023/05/31 08:52:37;;;;;;;;;;;;;;;20.80;43.32;102638.22;5054650;28;19924;-71
2023/05/31 08:55:05;;;;;;;;;;;;;;;20.80;43.64;102635.53;5057705;28;20429;-71
2023/05/31 08:57:31;;;;;;;;;;;;;;;20.80;43.65;102638.22;5040130;28;19972;-71
2023/05/31 08:59:57;;;;;;;;;;;;;;;20.80;43.31;102635.53;5046715;28;19913;-71
2023/05/31 09:02:22;;;;;;;;;;;;;;;20.80;43.40;102630.13;5038436;28;19984;-71
2023/05/31 09:04:47;;;;;;;;;;;;;;;20.82;43.46;102640.81;5050996;28;19972;-71
2023/05/31 09:07:13;;;;;;;;;;;;;;;20.81;43.57;102628.25;5052943;28;20386;-71
2023/05/31 09:09:38;;;;;;;;;;;;;;;20.82;43.63;102624.59;5053590;28;19917;-71
2023/05/31 09:12:03;;;;;;;;;;;;;;;20.82;43.62;102628.13;5047844;28;19917;-71
2023/05/31 09:14:29;;;;;;;;;;;;;;;20.83;43.48;102631.69;5033741;28;19913;-71
2023/05/31 09:16:54;;;;;;;;;;;;;;;20.83;43.43;102623.59;5036811;28;19921;-71
2023/05/31 09:19:19;;;;;;;;;;;;;;;20.83;43.69;102618.19;5037683;28;20666;-71
2023/05/31 09:21:45;;;;;;;;;;;;;;;20.84;43.67;102622.59;5058566;28;20409;-70
2023/05/31 09:24:10;;;;;;;;;;;;;;;20.85;43.22;102618.88;5041565;28;20277;-70
2023/05/31 09:26:41;;;;;;;;;;;;;;;20.84;43.36;102615.31;5034081;28;19939;-71
2023/05/31 09:29:06;;;;;;;;;;;;;;;20.86;43.67;102615.19;5051802;28;19921;-71
2023/05/31 09:31:31;;;;;;;;;;;;;;;20.87;43.58;102612.34;5053494;28;19929;-71
2023/05/31 09:33:56;;;;;;;;;;;;;;;20.87;43.55;102611.50;5051817;28;20291;-71
2023/05/31 09:36:26;;;;;;;;;;;;;;;20.87;43.32;102604.25;5052722;28;19922;-71
2023/05/31 09:38:57;;;;;;;;;;;;;;;20.88;43.57;102608.63;5052412;28;20444;-71
2023/05/31 09:41:23;;;;;;;;;;;;;;;20.90;43.44;102605.81;5051487;28;19917;-71
2023/05/31 09:43:48;;;;;;;;;;;;;;;20.90;43.34;102597.72;5034749;28;20370;-70
2023/05/31 09:46:18;;;;;;;;;;;;;;;20.91;43.64;102604.81;5043178;28;19935;-71
2023/05/31 09:48:56;;;;;;;;;;;;;;;20.91;43.43;102594.84;5034240;28;19921;-71
2023/05/31 09:51:21;;;;;;;;;;;;;;;20.92;43.56;102599.25;5059420;28;20000;-70
2023/05/31 09:53:46;;;;;;;;;;;;;;;20.92;43.37;102593.00;5052215;28;20358;-70
2023/05/31 09:56:17;;;;;;;;;;;;;;;20.93;43.67;102594.69;5046030;28;20357;-70
2023/05/31 09:58:42;;;;;;;;;;;;;;;20.95;43.56;102595.44;5035016;28;19913;-71
2023/05/31 10:01:07;;;;;;;;;;;;;;;20.95;43.43;102596.28;5055039;28;19962;-70
2023/05/31 10:03:33;;;;;;;;;;;;;;;20.96;43.45;102589.00;5022626;28;20382;-70
2023/05/31 10:05:58;;;;;;;;;;;;;;;20.97;43.51;102593.41;5033493;28;19923;-70
2023/05/31 10:08:23;;;;;;;;;;;;;;;20.97;43.41;102588.88;5036899;28;19913;-70
2023/05/31 10:10:49;;;;;;;;;;;;;;;20.98;43.59;102581.59;5051359;28;19921;-70
2023/05/31 10:13:14;;;;;;;;;;;;;;;21.01;43.71;102585.88;5042179;28;19920;-70
2023/05/31 10:15:39;;;;;;;;;;;;;;;21.01;43.47;102580.47;5051816;28;19920;-70
2023/05/31 10:18:11;;;;;;;;;;;;;;;21.01;43.54;102575.91;5038307;28;19970;-71
2023/05/31 10:20:49;;;;;;;;;;;;;;;21.02;43.76;102580.31;5028873;28;19924;-71
2023/05/31 10:23:17;;;;;;;;;;;;;;;21.03;43.65;102576.66;5055783;28;19913;-71
2023/05/31 10:25:47;;;;;;;;;;;;;;;21.04;43.72;102572.09;5053834;28;19913;-71
2023/05/31 10:28:12;;;;;;;;;;;;;;;21.06;43.76;102568.22;5046834;28;19913;-71
2023/05/31 10:30:38;;;;;;;;;;;;;;;21.06;43.73;102556.56;5034649;28;19947;-70
2023/05/31 10:33:07;;;;;;;;;;;;;;;21.07;43.68;102561.84;5036070;28;19921;-69
2023/05/31 10:35:32;;;;;;;;;;;;;;;21.08;43.68;102560.84;5020408;28;19973;-71
2023/05/31 10:37:58;;;;;;;;;;;;;;;21.09;43.80;102557.13;5051269;28;19940;-71
2023/05/31 10:40:23;;;;;;;;;;;;;;;21.11;43.81;102563.28;5036029;28;19988;-70
2023/05/31 10:42:48;;;;;;;;;;;;;;;21.11;43.91;102549.75;5051287;28;19919;-71
2023/05/31 10:45:25;;;;;;;;;;;;;;;21.12;43.73;102537.91;5054240;28;19913;-71
2023/05/31 10:47:53;;;;;;;;;;;;;;;21.15;43.70;102544.88;5051425;28;19913;-71
2023/05/31 10:50:20;;;;;;;;;;;;;;;21.16;43.71;102542.06;5059961;28;19932;-71
2023/05/31 10:52:49;;;;;;;;;;;;;;;21.17;43.76;102546.44;5044739;28;19984;-71
2023/05/31 10:55:16;;;;;;;;;;;;;;;21.20;43.72;102538.06;5050284;28;19949;-70
2023/05/31 10:57:41;;;;;;;;;;;;;;;21.22;43.94;102530.63;5046119;28;19935;-71
2023/05/31 11:00:07;;;;;;;;;;;;;;;21.24;43.90;102533.22;5049797;28;19980;-71
2023/05/31 11:02:33;;;;;;;;;;;;;;;21.26;43.97;102525.78;5019812;28;19913;-71
2023/05/31 11:05:16;;;;;;;;;;;;;;;21.27;44.01;102527.50;5045689;28;19925;-70
2023/05/31 11:07:41;;;;;;;;;;;;;;;21.31;43.98;102528.06;5035816;28;19913;-71
2023/05/31 11:10:10;;;;;;;;;;;;;;;21.33;43.98;102528.81;5050296;28;19940;-71
2023/05/31 11:12:36;;;;;;;;;;;;;;;21.34;43.77;102520.53;5053545;28;19920;-71
2023/05/31 11:15:03;;;;;;;;;;;;;;;21.37;43.80;102522.97;5043909;28;19952;-71
2023/05/31 11:17:28;;;;;;;;;;;;;;;21.38;43.80;102516.56;5054476;28;19952;-71
2023/05/31 11:19:53;;;;;;;;;;;;;;;21.40;43.69;102508.28;5055348;28;19913;-71
2023/05/31 11:22:21;;;;;;;;;;;;;;;21.42;44.00;102514.41;5052451;28;19945;-71
2023/05/31 11:24:50;;;;;;;;;;;;;;;21.44;44.01;102506.97;5052987;28;19917;-71
2023/05/31 11:27:15;;;;;;;;;;;;;;;21.45;44.10;102501.44;5048283;28;19917;-71
2023/05/31 11:29:44;;;;;;;;;;;;;;;21.46;44.01;102503.16;5032172;28;19917;-71
2023/05/31 11:32:09;;;;;;;;;;;;;;;21.49;43.92;102498.41;5050989;28;19913;-71
2023/05/31 11:34:35;;;;;;;;;;;;;;;21.50;44.22;102492.88;5044722;28;20288;-71
2023/05/31 11:37:01;;;;;;;;;;;;;;;21.53;44.02;102491.72;5024997;28;19917;-71
2023/05/31 11:39:26;;;;;;;;;;;;;;;21.54;43.92;102490.75;5033696;28;19917;-71
2023/05/31 11:41:52;;;;;;;;;;;;;;;21.55;44.15;102490.56;5026306;28;20334;-71
2023/05/31 11:44:20;;;;;;;;;;;;;;;21.57;44.00;102487.72;5043365;28;20355;-71
2023/05/31 11:46:46;;;;;;;;;;;;;;;21.58;44.02;102484.88;5056815;28;19940;-71
2023/05/31 11:49:11;;;;;;;;;;;;;;;21.60;44.34;102480.16;5030534;28;19921;-71
2023/05/31 11:51:38;;;;;;;;;;;;;;;21.63;43.92;102479.03;5039538;28;19913;-71
2023/05/31 11:54:03;;;;;;;;;;;;;;;21.64;44.25;102483.44;5036915;28;19943;-70
2023/05/31 11:56:36;;;;;;;;;;;;;;;21.66;44.15;102482.28;5050994;28;19948;-71
2023/05/31 11:59:01;;;;;;;;;;;;;;;21.68;43.98;102477.56;5044125;28;19948;-71
2023/05/31 12:01:26;;;;;;;;;;;;;;;21.69;44.32;102476.56;5050281;28;19940;-71
2023/05/31 12:03:59;;;;;;;;;;;;;;;21.72;44.05;102464.59;5048760;28;20406;-70
2023/05/31 12:06:24;;;;;;;;;;;;;;;21.75;44.11;102466.13;5049599;28;20011;-70
2023/05/31 12:08:51;;;;;;;;;;;;;;;21.75;44.01;102469.72;5035519;28;19920;-71
2023/05/31 12:11:16;;;;;;;;;;;;;;;21.77;44.32;102474.97;5049802;28;20539;-71
2023/05/31 12:13:41;;;;;;;;;;;;;;;21.79;44.23;102463.00;5056893;28;20370;-72
2023/05/31 12:16:06;;;;;;;;;;;;;;;21.81;44.38;102460.97;5048643;28;19945;-71
2023/05/31 12:18:33;;;;;;;;;;;;;;;21.83;44.24;102461.66;5054511;28;19920;-71
2023/05/31 12:21:03;;;;;;;;;;;;;;;21.84;44.29;102454.41;5051477;28;19913;-71
2023/05/31 12:23:30;;;;;;;;;;;;;;;21.86;44.36;102450.53;5051059;28;19913;-70
2023/05/31 12:25:57;;;;;;;;;;;;;;;21.86;44.33;102455.94;5050721;28;19924;-71
2023/05/31 12:28:22;;;;;;;;;;;;;;;21.88;44.26;102445.84;5050237;28;19912;-71